Explorer - northwestern half: Past 24 Hour Conditions

 

Vancouver Int'l Airport

07:00 AM PDT 30 July 2016
Disclaimer

This table is a summary of hourly weather conditions for the past 24 hours.
Please note that these observations might not always be representative of weather conditions over their associated marine area.

Date / Time
(PDT)
Wind(knots) Conditions Visibility(km) Pressure(kPa) Air tempC) Relative humidity(%) Dew pointC) Humidex
30 July 2016
7:00 W 14 Mainly Sunny 32 101.3 16 78 12 *
6:00 W 17 Mainly Sunny 32 101.2 15 83 12 *
5:00 WNW 15 gust 21 Mainly Clear 32 101.2 15 85 12 *
4:00 WNW 15 gust 21 Mainly Clear 32 101.2 15 84 13 *
3:00 WNW 19 gust 26 Clear 24 101.1 16 83 13 *
2:00 WNW 22 Clear 24 101.2 16 83 13 *
1:00 WNW 17 gust 27 Clear 24 101.2 16 81 13 *
0:00 WNW 20 gust 27 Clear 32 101.1 17 77 13 *
29 July 2016
23:00 WNW 19 Clear 24 101.1 18 77 14 *
22:00 WNW 12 gust 17 Clear 48 101.1 18 82 15 *
21:00 WNW 17 gust 23 Clear 48 101.1 19 77 15 *
20:00 WNW 21 gust 28 Sunny 48 101.1 20 72 15 24
19:00 WNW 17 gust 23 Sunny 48 101.1 21 71 16 26
18:00 NW 11 gust 16 Sunny 48 101.2 23 64 16 27
17:00 WNW 9 Sunny 48 101.3 23 65 16 28
16:00 W 9 Sunny 48 101.3 23 67 17 28
15:00 W 13 Sunny 48 101.4 23 65 16 27
14:00 WNW 15 Sunny 48 101.4 22 68 16 27
13:00 W 13 Sunny 48 101.5 22 69 16 27
12:00 WNW 18 Sunny 48 101.6 21 73 16 26
11:00 WNW 18 Sunny 48 101.6 21 75 16 25
10:00 WNW 17 gust 23 Sunny 48 101.6 20 77 16 25
9:00 WNW 14 gust 20 Sunny 48 101.6 20 80 16 *
8:00 WNW 14 Sunny 48 101.6 19 83 16 *
7:00 WNW 13 Sunny 48 101.6 18 86 16 *

Zoom-in to make a selection

Map of Pacific - South Coast marine weather areas Tsawwassen Ferry Terminal South Nomad - 46036 Sentry Shoal - 46131 South Brooks - 46132 Halibut Bank - 46146 South Moresby - 46147 South Hecate Strait - 46185 West Sea Otter - 46204 La Perouse Bank - 46206 East Dellwood - 46207 Discovery Island Esquimalt Harbour Kelp Reefs Malahat Race Rocks Lightstation Saturna Island Sheringham Point University of Victoria Victoria Gonzales Victoria Int'l Airport Ballenas Islands Campbell River Airport Comox Airport Entrance Island Fanny Island Nanaimo Airport Port Hardy Airport Sisters Islets Estevan Point Sartine Island Solander Island Tofino Airport Grief Point Powell River Airport Sechelt Cape St.James Bella Bella Airport Bella Coola Airport Cathedral Point Herbert Island Point Atkinson Sand Heads Lightstation Vancouver Harbour Vancouver Int'l Airport West Vancouver Port Alberni Howe Sound - Pam Rocks Squamish Airport
Legend:
buoy Buoy
land station Land Station

Pacific - South Coast Area

Another Region

What we are doing

Date modified: